Time;durP1;ratioP1;P1;durP2;ratioP2;P2;SDS_P1;SDS_P2;PMS_P1;PMS_P2;Temp;Humidity;BMP_temperature;BMP_pressure;BME280_temperature;BME280_humidity;BME280_pressure;Samples;Min_cycle;Max_cycle;Signal;HPM_P1;HPM_P2
2024/02/14 00:00:15;;;;;;;;;;;;;;;9.68;51.01;101133.19;4904967;28;98278;-68
2024/02/14 00:02:44;;;;;;;;;;;;;;;9.68;51.18;101133.19;4924370;28;98121;-64
2024/02/14 00:05:10;;;;;;;;;;;;;;;9.67;51.31;101123.47;4940220;28;114465;-65
2024/02/14 00:07:40;;;;;;;;;;;;;;;9.67;51.02;101120.78;4939988;28;100813;-64
2024/02/14 00:10:06;;;;;;;;;;;;;;;9.66;51.27;101116.47;4921314;28;98597;-65
2024/02/14 00:12:33;;;;;;;;;;;;;;;9.64;51.01;101122.09;4923816;28;98738;-64
2024/02/14 00:14:59;;;;;;;;;;;;;;;9.65;51.13;101122.91;4937915;28;98110;-68
2024/02/14 00:17:25;;;;;;;;;;;;;;;9.64;51.34;101118.59;4935386;28;110482;-64
2024/02/14 00:19:51;;;;;;;;;;;;;;;9.63;51.42;101115.09;4900710;28;100159;-68
2024/02/14 00:22:17;;;;;;;;;;;;;;;9.63;51.54;101117.78;4916958;28;99244;-68
2024/02/14 00:24:43;;;;;;;;;;;;;;;9.63;51.79;101120.47;4920985;28;99566;-68
2024/02/14 00:27:09;;;;;;;;;;;;;;;9.62;51.64;101115.31;4950894;28;98449;-68
2024/02/14 00:29:35;;;;;;;;;;;;;;;9.63;50.97;101122.34;4922092;28;99594;-64
2024/02/14 00:32:01;;;;;;;;;;;;;;;9.62;51.77;101116.13;4907781;28;97977;-68
2024/02/14 00:34:28;;;;;;;;;;;;;;;9.62;51.23;101116.13;4953709;28;99252;-69
2024/02/14 00:36:54;;;;;;;;;;;;;;;9.62;51.23;101121.53;4918737;28;98315;-64
2024/02/14 00:39:20;;;;;;;;;;;;;;;9.63;50.98;101125.03;4900025;28;98342;-65
2024/02/14 00:41:49;;;;;;;;;;;;;;;9.63;50.96;101119.63;4921417;28;98087;-64
2024/02/14 00:44:16;;;;;;;;;;;;;;;9.63;51.13;101115.09;4902063;28;98180;-67
2024/02/14 00:46:43;;;;;;;;;;;;;;;9.64;51.38;101127.50;4920792;28;98931;-65
2024/02/14 00:49:10;;;;;;;;;;;;;;;9.64;51.60;101127.50;4930333;28;97960;-68
2024/02/14 00:51:39;;;;;;;;;;;;;;;9.65;50.87;101129.13;4902781;28;98224;-68
2024/02/14 00:54:06;;;;;;;;;;;;;;;9.66;51.44;101128.03;4920782;28;98435;-64
2024/02/14 00:56:32;;;;;;;;;;;;;;;9.66;51.63;101119.97;4922870;28;98418;-65
2024/02/14 00:58:58;;;;;;;;;;;;;;;9.67;51.12;101126.16;4940867;28;97879;-64
2024/02/14 01:01:25;;;;;;;;;;;;;;;9.67;51.02;101129.69;4923844;28;98238;-68
2024/02/14 01:03:51;;;;;;;;;;;;;;;9.67;51.09;101121.63;4916649;28;98089;-65
2024/02/14 01:06:18;;;;;;;;;;;;;;;9.68;51.61;101115.16;4922898;28;97951;-64
2024/02/14 01:08:44;;;;;;;;;;;;;;;9.68;50.96;101120.56;4915814;28;98509;-68
2024/02/14 01:11:10;;;;;;;;;;;;;;;9.69;51.41;101134.81;4921352;28;100299;-64
2024/02/14 01:13:36;;;;;;;;;;;;;;;9.70;51.02;101125.69;4942929;28;98070;-68
2024/02/14 01:16:04;;;;;;;;;;;;;;;9.70;51.50;101128.38;4903722;28;99479;-64
2024/02/14 01:18:31;;;;;;;;;;;;;;;9.71;51.54;101127.34;4923047;28;100873;-65
2024/02/14 01:21:01;;;;;;;;;;;;;;;9.70;50.96;101121.09;4908004;28;99350;-68
2024/02/14 01:23:27;;;;;;;;;;;;;;;9.71;51.06;101128.16;4916558;28;98620;-65
2024/02/14 01:25:54;;;;;;;;;;;;;;;9.73;51.50;101130.56;4905583;28;102737;-68
2024/02/14 01:28:21;;;;;;;;;;;;;;;9.73;51.09;101122.50;4938132;28;99538;-64
2024/02/14 01:30:47;;;;;;;;;;;;;;;9.73;50.95;101117.94;4942077;28;98942;-65
2024/02/14 01:33:13;;;;;;;;;;;;;;;9.74;51.04;101114.16;4921766;28;98059;-68
2024/02/14 01:35:41;;;;;;;;;;;;;;;9.75;51.24;101112.31;4919104;28;98473;-65
2024/02/14 01:38:08;;;;;;;;;;;;;;;9.76;51.28;101116.63;4921958;28;99374;-64
2024/02/14 01:40:34;;;;;;;;;;;;;;;9.75;51.18;101099.66;4919973;28;98837;-68
2024/02/14 01:43:00;;;;;;;;;;;;;;;9.76;51.36;101095.91;4902539;28;111288;-64
2024/02/14 01:45:27;;;;;;;;;;;;;;;9.76;50.98;101089.72;4907258;28;98266;-64
2024/02/14 01:47:53;;;;;;;;;;;;;;;9.78;51.33;101095.66;4917370;28;98671;-69
2024/02/14 01:50:28;;;;;;;;;;;;;;;9.77;51.14;101091.34;4916562;28;98352;-64
2024/02/14 01:52:55;;;;;;;;;;;;;;;9.77;51.42;101089.44;4914639;28;97982;-64
2024/02/14 01:55:21;;;;;;;;;;;;;;;9.77;51.13;101091.34;4905989;28;98186;-64
2024/02/14 01:57:47;;;;;;;;;;;;;;;9.78;51.46;101084.88;4928271;28;98036;-65
2024/02/14 02:00:17;;;;;;;;;;;;;;;9.78;51.77;101085.69;4903517;28;99835;-64
2024/02/14 02:02:44;;;;;;;;;;;;;;;9.78;51.18;101083.00;4920496;28;98493;-64
2024/02/14 02:05:12;;;;;;;;;;;;;;;9.79;51.51;101087.34;4903881;28;98457;-64
2024/02/14 02:07:42;;;;;;;;;;;;;;;9.79;51.36;101084.66;4914628;28;99483;-65
2024/02/14 02:10:09;;;;;;;;;;;;;;;9.80;51.56;101088.97;4910495;28;98037;-68
2024/02/14 02:12:38;;;;;;;;;;;;;;;9.81;51.59;101081.69;4913675;28;99679;-68
2024/02/14 02:15:10;;;;;;;;;;;;;;;9.81;50.90;101073.63;4904632;28;98483;-68
2024/02/14 02:17:36;;;;;;;;;;;;;;;9.81;51.55;101079.81;4915904;28;101846;-68
2024/02/14 02:20:02;;;;;;;;;;;;;;;9.81;51.14;101079.81;4921967;28;98189;-68
2024/02/14 02:22:32;;;;;;;;;;;;;;;9.82;50.99;101078.78;4905754;28;98198;-65
2024/02/14 02:24:58;;;;;;;;;;;;;;;9.82;51.55;101076.09;4921630;28;98411;-68
2024/02/14 02:27:25;;;;;;;;;;;;;;;9.82;51.05;101073.38;4933422;28;98445;-64
2024/02/14 02:29:51;;;;;;;;;;;;;;;9.82;51.53;101075.25;4925019;28;98232;-65
2024/02/14 02:32:17;;;;;;;;;;;;;;;9.84;51.30;101076.63;4913909;28;125183;-68
2024/02/14 02:34:45;;;;;;;;;;;;;;;9.85;51.52;101074.75;4905859;28;98036;-68
2024/02/14 02:37:11;;;;;;;;;;;;;;;9.86;51.27;101079.06;4922848;28;98431;-68
2024/02/14 02:39:37;;;;;;;;;;;;;;;9.87;51.16;101077.22;4923830;28;97870;-68
2024/02/14 02:42:04;;;;;;;;;;;;;;;9.88;51.43;101076.16;4918912;28;98051;-64
2024/02/14 02:44:31;;;;;;;;;;;;;;;9.87;50.87;101069.94;4917336;28;100318;-64
2024/02/14 02:46:57;;;;;;;;;;;;;;;9.89;51.03;101067.00;4920574;28;98073;-68
2024/02/14 02:49:23;;;;;;;;;;;;;;;9.89;51.05;101064.31;4907533;28;128172;-65
2024/02/14 02:51:50;;;;;;;;;;;;;;;9.89;51.25;101067.81;4918960;28;98183;-68
2024/02/14 02:54:16;;;;;;;;;;;;;;;9.90;50.95;101055.16;4928229;28;98856;-68
2024/02/14 02:56:42;;;;;;;;;;;;;;;9.91;51.60;101064.88;4918847;28;118301;-65
2024/02/14 02:59:08;;;;;;;;;;;;;;;9.91;51.48;101051.44;4918933;28;97901;-68
2024/02/14 03:01:37;;;;;;;;;;;;;;;9.93;51.47;101057.34;4946921;28;97971;-64
2024/02/14 03:04:03;;;;;;;;;;;;;;;9.93;51.25;101049.28;4906247;28;98000;-68
2024/02/14 03:06:30;;;;;;;;;;;;;;;9.92;51.12;101059.25;4916418;28;118751;-64
2024/02/14 03:08:57;;;;;;;;;;;;;;;9.93;51.01;101070.81;4916698;28;98276;-68
2024/02/14 03:11:24;;;;;;;;;;;;;;;9.94;51.46;101061.69;4921678;28;98883;-65
2024/02/14 03:13:53;;;;;;;;;;;;;;;9.94;51.29;101059.81;4903523;28;99852;-64
2024/02/14 03:16:19;;;;;;;;;;;;;;;9.94;51.23;101058.97;4905360;28;100630;-64
2024/02/14 03:18:45;;;;;;;;;;;;;;;9.94;51.01;101056.28;4917228;28;98299;-68
2024/02/14 03:21:11;;;;;;;;;;;;;;;9.93;51.57;101055.47;4923460;28;123378;-68
2024/02/14 03:23:37;;;;;;;;;;;;;;;9.94;50.78;101048.22;4923870;28;98026;-68
2024/02/14 03:26:07;;;;;;;;;;;;;;;9.93;51.61;101050.09;4940170;28;128165;-68
2024/02/14 03:28:33;;;;;;;;;;;;;;;9.92;50.97;101048.47;4906201;28;98802;-64
2024/02/14 03:31:00;;;;;;;;;;;;;;;9.92;51.38;101053.84;4922804;28;98448;-64
2024/02/14 03:33:28;;;;;;;;;;;;;;;9.91;50.93;101052.22;4911272;28;98086;-68
2024/02/14 03:35:55;;;;;;;;;;;;;;;9.90;51.33;101045.19;4928345;28;100135;-65
2024/02/14 03:38:28;;;;;;;;;;;;;;;9.90;50.96;101049.78;4930026;28;98747;-64
2024/02/14 03:40:54;;;;;;;;;;;;;;;9.89;51.01;101051.66;4928270;28;98006;-68
2024/02/14 03:43:21;;;;;;;;;;;;;;;9.89;51.44;101050.84;4904010;28;98119;-68
2024/02/14 03:45:49;;;;;;;;;;;;;;;9.88;51.67;101052.72;4911902;28;98154;-65
2024/02/14 03:48:15;;;;;;;;;;;;;;;9.87;51.06;101058.38;4919688;28;98174;-68
2024/02/14 03:50:42;;;;;;;;;;;;;;;9.87;51.58;101047.59;4917275;28;98395;-64
2024/02/14 03:53:10;;;;;;;;;;;;;;;9.86;51.12;101049.44;4919910;28;99455;-64
2024/02/14 03:55:37;;;;;;;;;;;;;;;9.84;51.28;101049.72;4928173;28;98161;-64
2024/02/14 03:58:05;;;;;;;;;;;;;;;9.82;51.00;101049.16;4902719;28;98096;-65
2024/02/14 04:00:31;;;;;;;;;;;;;;;9.82;51.46;101041.06;4941469;28;98368;-64
2024/02/14 04:03:00;;;;;;;;;;;;;;;9.82;50.96;101035.69;4920913;28;99067;-64
2024/02/14 04:05:27;;;;;;;;;;;;;;;9.83;51.45;101041.88;4915805;28;97892;-68
2024/02/14 04:07:54;;;;;;;;;;;;;;;9.81;51.63;101028.66;4900803;28;98143;-68
2024/02/14 04:10:20;;;;;;;;;;;;;;;9.81;51.66;101025.97;4916921;28;98194;-64
2024/02/14 04:12:47;;;;;;;;;;;;;;;9.82;50.89;101033.00;4920990;28;98807;-64
2024/02/14 04:15:13;;;;;;;;;;;;;;;9.82;50.96;101024.94;4911484;28;99473;-64
2024/02/14 04:17:40;;;;;;;;;;;;;;;9.82;51.50;101029.47;4923048;28;99130;-64
2024/02/14 04:20:07;;;;;;;;;;;;;;;9.80;50.82;101018.97;4905878;28;98826;-64
2024/02/14 04:22:33;;;;;;;;;;;;;;;9.81;50.96;101017.88;4905555;28;106996;-68
2024/02/14 04:24:59;;;;;;;;;;;;;;;9.82;50.93;101021.38;4920626;28;98056;-65
2024/02/14 04:27:27;;;;;;;;;;;;;;;9.80;51.08;101013.56;4906834;28;98148;-66
2024/02/14 04:29:53;;;;;;;;;;;;;;;9.80;51.03;101015.44;4924083;28;101574;-68
2024/02/14 04:32:19;;;;;;;;;;;;;;;9.79;51.48;101014.66;4938235;28;98788;-68
2024/02/14 04:34:45;;;;;;;;;;;;;;;9.79;51.41;101017.34;4908477;28;98190;-64
2024/02/14 04:37:13;;;;;;;;;;;;;;;9.79;51.45;101014.66;4904070;28;98307;-64
2024/02/14 04:39:40;;;;;;;;;;;;;;;9.78;51.56;101010.28;4919259;28;98278;-66
2024/02/14 04:42:06;;;;;;;;;;;;;;;9.79;51.33;101016.53;4922507;28;98339;-65
2024/02/14 04:44:34;;;;;;;;;;;;;;;9.78;51.02;101013.00;4909969;28;98240;-64
2024/02/14 04:47:00;;;;;;;;;;;;;;;9.79;51.47;101011.13;4923951;28;98231;-68
2024/02/14 04:49:28;;;;;;;;;;;;;;;9.79;51.58;101008.44;4905113;28;98317;-68
2024/02/14 04:51:55;;;;;;;;;;;;;;;9.79;51.55;101011.94;4915066;28;98126;-68
2024/02/14 04:54:25;;;;;;;;;;;;;;;9.80;51.57;101015.44;4902924;28;99058;-65
2024/02/14 04:56:51;;;;;;;;;;;;;;;9.80;51.22;101010.88;4921371;28;98836;-68
2024/02/14 04:59:17;;;;;;;;;;;;;;;9.81;51.46;101015.19;4908521;28;101530;-64
2024/02/14 05:01:43;;;;;;;;;;;;;;;9.81;51.47;101004.44;4913373;28;99671;-68
2024/02/14 05:04:09;;;;;;;;;;;;;;;9.83;50.96;101009.59;4901214;28;127041;-68
2024/02/14 05:06:36;;;;;;;;;;;;;;;9.84;51.83;101006.63;4922310;28;101155;-68
2024/02/14 05:09:02;;;;;;;;;;;;;;;9.86;51.51;101002.84;4916721;28;98012;-64
2024/02/14 05:11:28;;;;;;;;;;;;;;;9.86;51.30;101003.66;4899439;28;122154;-64
2024/02/14 05:13:54;;;;;;;;;;;;;;;9.88;51.13;101006.13;4922774;28;99573;-64
2024/02/14 05:16:20;;;;;;;;;;;;;;;9.88;51.33;101001.56;4912318;28;99849;-64
2024/02/14 05:18:47;;;;;;;;;;;;;;;9.89;51.31;101005.88;4912731;28;98105;-68
2024/02/14 05:21:13;;;;;;;;;;;;;;;9.90;51.54;101004.81;4903918;28;98210;-68
2024/02/14 05:23:39;;;;;;;;;;;;;;;9.91;51.05;101006.44;4921769;28;128104;-68
2024/02/14 05:26:05;;;;;;;;;;;;;;;9.92;51.25;100997.31;4907916;28;128612;-67
2024/02/14 05:28:31;;;;;;;;;;;;;;;9.93;51.76;100998.91;4934469;28;97930;-68
2024/02/14 05:30:59;;;;;;;;;;;;;;;9.95;50.94;101004.06;4916397;28;98521;-64
2024/02/14 05:33:24;;;;;;;;;;;;;;;9.95;50.91;100994.13;4912041;28;98467;-64
2024/02/14 05:35:51;;;;;;;;;;;;;;;9.97;51.18;100985.78;4904931;28;98165;-64
2024/02/14 05:38:19;;;;;;;;;;;;;;;9.97;51.19;100996.53;4899252;28;98126;-64
2024/02/14 05:40:46;;;;;;;;;;;;;;;9.98;51.16;100982.00;4914144;28;98277;-64
2024/02/14 05:43:12;;;;;;;;;;;;;;;9.99;50.98;100986.34;4942120;28;98794;-65
2024/02/14 05:45:38;;;;;;;;;;;;;;;10.00;51.23;100987.97;4919865;28;98447;-68
2024/02/14 05:48:04;;;;;;;;;;;;;;;9.99;51.14;100987.16;4929829;28;98345;-65
2024/02/14 05:50:32;;;;;;;;;;;;;;;9.99;51.59;100973.69;4917727;28;98155;-64
2024/02/14 05:52:59;;;;;;;;;;;;;;;9.98;50.95;100982.84;4898452;28;98165;-68
2024/02/14 05:55:25;;;;;;;;;;;;;;;9.97;51.24;100975.81;4904257;28;98258;-64
2024/02/14 05:57:52;;;;;;;;;;;;;;;9.98;51.43;100976.63;4921577;28;97914;-68
2024/02/14 06:00:19;;;;;;;;;;;;;;;9.97;51.46;100977.69;4935116;28;98228;-68
2024/02/14 06:02:45;;;;;;;;;;;;;;;9.96;51.10;100976.06;4915821;28;115340;-68
2024/02/14 06:05:11;;;;;;;;;;;;;;;9.96;51.62;100984.16;4917659;28;98207;-68
2024/02/14 06:07:38;;;;;;;;;;;;;;;9.96;51.62;100984.16;4927825;28;117424;-65
2024/02/14 06:10:06;;;;;;;;;;;;;;;9.96;51.41;100981.47;4900349;28;98712;-64
2024/02/14 06:12:32;;;;;;;;;;;;;;;9.96;51.15;100981.47;4916008;28;99269;-65
2024/02/14 06:14:58;;;;;;;;;;;;;;;9.96;51.03;100976.06;4918591;28;109520;-68
2024/02/14 06:17:26;;;;;;;;;;;;;;;9.95;51.13;100980.66;4920047;28;101911;-68
2024/02/14 06:19:52;;;;;;;;;;;;;;;9.96;50.95;100978.78;4903736;28;99541;-68
2024/02/14 06:22:18;;;;;;;;;;;;;;;9.95;51.58;100977.97;4896942;28;98440;-68
2024/02/14 06:24:44;;;;;;;;;;;;;;;9.96;51.41;100981.47;4905562;28;98050;-65
2024/02/14 06:27:13;;;;;;;;;;;;;;;9.96;51.49;100976.88;4920669;28;99066;-65
2024/02/14 06:29:41;;;;;;;;;;;;;;;9.98;51.39;100988.22;4935149;28;98484;-69
2024/02/14 06:32:07;;;;;;;;;;;;;;;9.99;51.44;100989.84;4922006;28;99928;-68
2024/02/14 06:34:33;;;;;;;;;;;;;;;10.01;51.61;100987.72;4921524;28;98065;-68
2024/02/14 06:36:59;;;;;;;;;;;;;;;10.03;51.60;100999.06;4901656;28;121693;-65
2024/02/14 06:39:28;;;;;;;;;;;;;;;10.05;51.54;101001.50;4913674;28;98709;-65
2024/02/14 06:41:54;;;;;;;;;;;;;;;10.06;51.49;101003.97;4931263;28;97988;-65
2024/02/14 06:44:20;;;;;;;;;;;;;;;10.08;51.18;101001.00;4920005;28;98203;-68
2024/02/14 06:46:47;;;;;;;;;;;;;;;10.10;51.15;101006.97;4905134;28;97935;-65
2024/02/14 06:49:13;;;;;;;;;;;;;;;10.12;51.28;101001.31;4908514;28;130340;-69
2024/02/14 06:51:39;;;;;;;;;;;;;;;10.14;50.96;100996.47;4920371;28;98159;-64
2024/02/14 06:54:05;;;;;;;;;;;;;;;10.18;51.40;101000.28;4926946;28;106029;-66
2024/02/14 06:56:31;;;;;;;;;;;;;;;10.20;51.24;100990.91;4943027;28;99111;-64
2024/02/14 06:58:59;;;;;;;;;;;;;;;10.24;51.25;100992.03;4906192;28;98197;-64
2024/02/14 07:01:26;;;;;;;;;;;;;;;10.27;51.41;100986.16;4917903;28;100078;-68
2024/02/14 07:03:53;;;;;;;;;;;;;;;10.34;51.28;100987.88;4926397;28;98293;-68
2024/02/14 07:06:19;;;;;;;;;;;;;;;10.40;51.12;100976.88;4935767;28;98537;-68
2024/02/14 07:08:44;;;;;;;;;;;;;;;10.47;50.95;100982.88;4923734;28;98995;-68
2024/02/14 07:11:12;;;;;;;;;;;;;;;10.52;51.20;100977.53;4906625;28;129302;-65
2024/02/14 07:13:39;;;;;;;;;;;;;;;10.57;51.11;100984.84;4907439;28;97906;-65
2024/02/14 07:16:06;;;;;;;;;;;;;;;10.62;50.79;100978.72;4920586;28;98141;-68
2024/02/14 07:18:33;;;;;;;;;;;;;;;10.65;51.22;100975.50;4936030;28;98160;-68
2024/02/14 07:20:59;;;;;;;;;;;;;;;10.66;50.92;100972.56;4923702;28;102829;-65
2024/02/14 07:23:26;;;;;;;;;;;;;;;10.67;50.85;100968.78;4923597;28;100404;-68
2024/02/14 07:25:52;;;;;;;;;;;;;;;10.69;50.84;100973.91;4925187;28;98628;-68
2024/02/14 07:28:18;;;;;;;;;;;;;;;10.71;51.22;100972.59;4933821;28;111308;-69
2024/02/14 07:30:44;;;;;;;;;;;;;;;10.75;50.78;100971.00;4925741;28;99431;-65
2024/02/14 07:33:10;;;;;;;;;;;;;;;10.82;50.97;100962.72;4909305;28;98329;-70
2024/02/14 07:35:42;;;;;;;;;;;;;;;10.89;50.91;100965.22;4923655;28;122836;-64
2024/02/14 07:38:08;;;;;;;;;;;;;;;10.92;51.08;100960.09;4942504;28;98088;-68
2024/02/14 07:40:35;;;;;;;;;;;;;;;10.99;50.86;100955.28;4919626;28;99642;-65
2024/02/14 07:43:02;;;;;;;;;;;;;;;11.08;50.85;100963.72;4909397;28;97995;-69
2024/02/14 07:45:28;;;;;;;;;;;;;;;11.22;50.68;100961.41;4923207;28;98452;-65
2024/02/14 07:47:54;;;;;;;;;;;;;;;11.31;50.62;100954.44;4925582;28;99760;-65
2024/02/14 07:50:20;;;;;;;;;;;;;;;11.39;50.66;100945.84;4917898;28;97996;-69
2024/02/14 07:52:47;;;;;;;;;;;;;;;11.47;50.61;100945.34;4918560;28;98395;-69
2024/02/14 07:55:13;;;;;;;;;;;;;;;11.55;50.55;100946.75;4908501;28;98163;-65
2024/02/14 07:57:40;;;;;;;;;;;;;;;11.61;50.39;100940.31;4906155;28;99821;-69
2024/02/14 08:00:10;;;;;;;;;;;;;;;11.69;50.64;100936.31;4935556;28;103072;-65
2024/02/14 08:02:37;;;;;;;;;;;;;;;11.73;50.53;100934.69;4921673;28;99960;-66
2024/02/14 08:05:04;;;;;;;;;;;;;;;11.72;50.65;100933.88;4920684;28;98545;-65
2024/02/14 08:07:30;;;;;;;;;;;;;;;11.76;50.66;100937.69;4924579;28;98534;-66
2024/02/14 08:09:57;;;;;;;;;;;;;;;11.84;50.69;100928.28;4936292;28;97957;-66
2024/02/14 08:12:24;;;;;;;;;;;;;;;11.98;50.62;100925.91;4926603;28;98473;-69
2024/02/14 08:14:51;;;;;;;;;;;;;;;12.00;50.63;100921.06;4908315;28;98114;-69
2024/02/14 08:17:17;;;;;;;;;;;;;;;12.05;50.60;100931.88;4906663;28;99533;-65
2024/02/14 08:19:43;;;;;;;;;;;;;;;12.15;50.39;100936.50;4932200;28;126508;-65
2024/02/14 08:22:09;;;;;;;;;;;;;;;12.35;50.51;100933.03;4918567;28;98135;-69
2024/02/14 08:24:35;;;;;;;;;;;;;;;12.44;50.31;100928.72;4915132;28;122962;-69
2024/02/14 08:27:01;;;;;;;;;;;;;;;12.49;50.33;100929.53;4901935;28;98343;-69
2024/02/14 08:29:28;;;;;;;;;;;;;;;12.59;50.37;100934.16;4916614;28;129665;-65
2024/02/14 08:31:55;;;;;;;;;;;;;;;12.67;50.14;100928.19;4922638;28;98096;-69
2024/02/14 08:34:21;;;;;;;;;;;;;;;12.70;50.56;100929.56;4935606;28;98272;-69
2024/02/14 08:36:47;;;;;;;;;;;;;;;12.74;50.54;100933.34;4915769;28;123370;-70
2024/02/14 08:39:13;;;;;;;;;;;;;;;12.76;50.62;100929.28;4917244;28;127143;-65
2024/02/14 08:41:41;;;;;;;;;;;;;;;12.79;50.60;100927.94;4923693;28;98481;-65
2024/02/14 08:44:07;;;;;;;;;;;;;;;12.82;50.54;100930.09;4949486;28;98221;-65
2024/02/14 08:46:33;;;;;;;;;;;;;;;12.84;50.77;100922.50;4904528;28;98296;-69
2024/02/14 08:49:01;;;;;;;;;;;;;;;12.89;50.35;100932.50;4933468;28;98601;-65
2024/02/14 08:51:30;;;;;;;;;;;;;;;12.93;50.55;100926.31;4923780;28;98082;-69
2024/02/14 08:53:59;;;;;;;;;;;;;;;12.95;50.74;100931.44;4937307;28;98326;-65
2024/02/14 08:56:25;;;;;;;;;;;;;;;12.89;50.60;100922.53;4938707;28;98059;-68
2024/02/14 08:58:52;;;;;;;;;;;;;;;12.83;50.79;100923.59;4925259;28;98152;-65
2024/02/14 09:01:20;;;;;;;;;;;;;;;12.75;50.90;100916.03;4921853;28;99735;-66
2024/02/14 09:03:47;;;;;;;;;;;;;;;12.68;50.54;100912.78;4922370;28;98243;-69
2024/02/14 09:06:15;;;;;;;;;;;;;;;12.60;50.53;100913.31;4907446;28;98061;-65
2024/02/14 09:08:43;;;;;;;;;;;;;;;12.55;50.67;100921.44;4911649;28;99899;-70
2024/02/14 09:11:09;;;;;;;;;;;;;;;12.52;50.79;100904.66;4925584;28;98283;-69
2024/02/14 09:13:35;;;;;;;;;;;;;;;12.57;50.94;100916.56;4926912;28;98542;-69
2024/02/14 09:16:02;;;;;;;;;;;;;;;12.57;50.76;100911.94;4918467;28;98252;-69
2024/02/14 09:18:31;;;;;;;;;;;;;;;12.57;51.07;100922.78;4906691;28;98417;-70
2024/02/14 09:21:01;;;;;;;;;;;;;;;12.58;50.65;100923.59;4941554;28;98953;-65
2024/02/14 09:23:28;;;;;;;;;;;;;;;12.57;50.62;100920.06;4907317;28;98670;-69
2024/02/14 09:25:57;;;;;;;;;;;;;;;12.49;50.90;100921.41;4937898;28;99695;-65
2024/02/14 09:28:25;;;;;;;;;;;;;;;12.42;50.72;100923.59;4900468;28;98274;-69
2024/02/14 09:30:52;;;;;;;;;;;;;;;12.33;50.84;100919.78;4937886;28;99419;-65
2024/02/14 09:33:21;;;;;;;;;;;;;;;12.27;50.77;100918.16;4942642;28;98292;-66
2024/02/14 09:35:50;;;;;;;;;;;;;;;12.23;50.86;100919.78;4922887;28;98528;-65
2024/02/14 09:38:17;;;;;;;;;;;;;;;12.20;51.03;100928.41;4920380;28;98039;-65
2024/02/14 09:40:43;;;;;;;;;;;;;;;12.16;50.86;100924.63;4905350;28;98357;-69
2024/02/14 09:43:17;;;;;;;;;;;;;;;12.10;50.98;100926.47;4925431;28;98572;-69
2024/02/14 09:45:43;;;;;;;;;;;;;;;12.08;51.03;100914.31;4903763;28;98112;-69
2024/02/14 09:48:10;;;;;;;;;;;;;;;12.07;50.98;100913.53;4941163;28;98161;-69
2024/02/14 09:50:37;;;;;;;;;;;;;;;12.13;51.00;100911.63;4923691;28;98433;-69
2024/02/14 09:53:04;;;;;;;;;;;;;;;12.22;50.93;100915.41;4935729;28;98981;-69
2024/02/14 09:55:33;;;;;;;;;;;;;;;12.26;50.77;100916.50;4904801;28;98271;-65
2024/02/14 09:58:03;;;;;;;;;;;;;;;12.25;50.76;100912.19;4920510;28;98305;-65
2024/02/14 10:00:31;;;;;;;;;;;;;;;12.21;50.90;100911.91;4907860;28;98039;-65
2024/02/14 10:02:57;;;;;;;;;;;;;;;12.14;50.93;100914.06;4906835;28;98156;-65
2024/02/14 10:05:25;;;;;;;;;;;;;;;12.14;50.93;100924.06;4950949;28;98472;-69
2024/02/14 10:07:52;;;;;;;;;;;;;;;12.13;50.87;100922.44;4903965;28;98122;-65
2024/02/14 10:10:19;;;;;;;;;;;;;;;12.12;50.90;100924.34;4918755;28;98140;-69
2024/02/14 10:12:46;;;;;;;;;;;;;;;12.14;50.86;100930.25;4923184;28;98062;-65
2024/02/14 10:15:16;;;;;;;;;;;;;;;12.19;50.96;100933.00;4908651;28;98668;-65
2024/02/14 10:17:43;;;;;;;;;;;;;;;12.26;50.92;100922.75;4906049;28;98372;-69
2024/02/14 10:20:10;;;;;;;;;;;;;;;12.34;50.74;100932.22;4934160;28;98008;-64
2024/02/14 10:22:38;;;;;;;;;;;;;;;12.47;50.68;100925.47;4903116;28;98702;-64
2024/02/14 10:25:11;;;;;;;;;;;;;;;12.61;50.44;100931.97;4919513;28;98281;-65
2024/02/14 10:27:38;;;;;;;;;;;;;;;12.67;50.59;100928.19;4914340;28;99427;-68
2024/02/14 10:30:09;;;;;;;;;;;;;;;12.70;50.63;100929.56;4906518;28;98427;-68
2024/02/14 10:32:37;;;;;;;;;;;;;;;12.71;50.44;100928.47;4918777;28;98047;-65
2024/02/14 10:35:11;;;;;;;;;;;;;;;12.69;50.72;100926.06;4924981;28;98449;-69
2024/02/14 10:37:39;;;;;;;;;;;;;;;12.65;50.93;100918.72;4921757;28;98114;-65
2024/02/14 10:40:06;;;;;;;;;;;;;;;12.62;50.78;100919.28;4922338;28;98424;-69
2024/02/14 10:42:33;;;;;;;;;;;;;;;12.57;50.75;100920.06;4932646;28;98130;-68
2024/02/14 10:45:05;;;;;;;;;;;;;;;12.54;51.01;100923.34;4932681;28;98221;-65
2024/02/14 10:47:36;;;;;;;;;;;;;;;12.48;50.89;100919.78;4918311;28;98106;-65
2024/02/14 10:50:06;;;;;;;;;;;;;;;12.43;50.95;100919.81;4901540;28;98120;-64
2024/02/14 10:52:36;;;;;;;;;;;;;;;12.40;51.21;100914.91;4906805;28;98010;-64
2024/02/14 10:55:04;;;;;;;;;;;;;;;12.40;50.84;100911.41;4934294;28;99077;-64
2024/02/14 10:57:32;;;;;;;;;;;;;;;12.39;50.96;100909.78;4905788;28;98257;-68
2024/02/14 11:00:04;;;;;;;;;;;;;;;12.39;50.84;100909.78;4901404;28;99146;-64
2024/02/14 11:02:32;;;;;;;;;;;;;;;12.42;50.83;100909.25;4920509;28;98275;-64
2024/02/14 11:05:00;;;;;;;;;;;;;;;12.44;51.04;100898.97;4921957;28;99761;-64
2024/02/14 11:07:30;;;;;;;;;;;;;;;12.45;50.88;100898.69;4906511;28;98297;-68
2024/02/14 11:10:09;;;;;;;;;;;;;;;12.47;50.62;100907.38;4903556;28;99675;-64
2024/02/14 11:12:36;;;;;;;;;;;;;;;12.52;50.64;100904.66;4924423;28;99953;-64
2024/02/14 11:15:18;;;;;;;;;;;;;;;12.58;50.64;100905.50;4905723;28;97983;-68
2024/02/14 11:17:44;;;;;;;;;;;;;;;12.61;50.70;100899.50;4938461;28;98101;-68
2024/02/14 11:20:14;;;;;;;;;;;;;;;12.63;51.02;100899.25;4925027;28;99428;-68
2024/02/14 11:22:49;;;;;;;;;;;;;;;12.62;50.80;100901.16;4934438;28;98813;-65
2024/02/14 11:25:17;;;;;;;;;;;;;;;12.59;51.00;100896.28;4922777;28;98552;-64
2024/02/14 11:27:49;;;;;;;;;;;;;;;12.53;50.91;100898.16;4917178;28;98342;-68
2024/02/14 11:30:27;;;;;;;;;;;;;;;12.50;50.83;100906.03;4922814;28;98127;-64
2024/02/14 11:32:55;;;;;;;;;;;;;;;12.49;50.96;100896.25;4921892;28;98495;-65
2024/02/14 11:35:22;;;;;;;;;;;;;;;12.49;50.96;100898.97;4908928;28;101226;-64
2024/02/14 11:37:53;;;;;;;;;;;;;;;12.50;50.84;100895.22;4920701;28;98063;-64
2024/02/14 11:40:20;;;;;;;;;;;;;;;12.51;51.01;100896.81;4927782;28;98775;-67
2024/02/14 11:42:48;;;;;;;;;;;;;;;12.50;50.94;100901.44;4925971;28;98413;-64
2024/02/14 11:45:15;;;;;;;;;;;;;;;12.56;51.05;100893.31;4920521;28;99049;-64
2024/02/14 11:47:42;;;;;;;;;;;;;;;12.68;50.85;100894.66;4910022;28;98609;-64
2024/02/14 11:50:10;;;;;;;;;;;;;;;12.78;51.05;100896.56;4932052;28;98082;-64
2024/02/14 11:52:37;;;;;;;;;;;;;;;12.85;50.82;100890.84;4924552;28;98299;-64
2024/02/14 11:55:03;;;;;;;;;;;;;;;12.93;50.86;100893.00;4923245;28;98123;-64
2024/02/14 11:57:29;;;;;;;;;;;;;;;12.97;51.11;100886.81;4936805;28;98293;-68
2024/02/14 11:59:57;;;;;;;;;;;;;;;13.11;50.71;100895.16;4909147;28;98255;-68
2024/02/14 12:02:24;;;;;;;;;;;;;;;13.20;50.98;100896.25;4920563;28;98557;-68
2024/02/14 12:04:50;;;;;;;;;;;;;;;13.25;50.81;100888.13;4907671;28;98185;-64
2024/02/14 12:07:17;;;;;;;;;;;;;;;13.41;50.89;100888.09;4939820;28;98279;-64
2024/02/14 12:09:44;;;;;;;;;;;;;;;13.53;50.70;100887.78;4908096;28;98130;-64
2024/02/14 12:12:11;;;;;;;;;;;;;;;13.60;50.86;100880.97;4919718;28;98209;-66
2024/02/14 12:14:38;;;;;;;;;;;;;;;13.66;50.55;100881.75;4919275;28;98265;-68
2024/02/14 12:17:06;;;;;;;;;;;;;;;13.63;50.86;100891.22;4905125;28;97990;-68
2024/02/14 12:19:34;;;;;;;;;;;;;;;13.59;50.69;100889.34;4934470;28;97996;-68
2024/02/14 12:22:04;;;;;;;;;;;;;;;13.54;51.06;100892.91;4918985;28;98663;-68
2024/02/14 12:24:31;;;;;;;;;;;;;;;13.53;50.85;100888.56;4909317;28;100485;-68
2024/02/14 12:26:57;;;;;;;;;;;;;;;13.51;51.00;100888.84;4918428;28;98165;-68
2024/02/14 12:29:25;;;;;;;;;;;;;;;13.48;51.00;100885.91;4904622;28;98231;-68
2024/02/14 12:31:52;;;;;;;;;;;;;;;13.47;51.20;100885.06;4908619;28;98028;-67
2024/02/14 12:34:20;;;;;;;;;;;;;;;13.46;50.90;100888.88;4926376;28;98073;-64
2024/02/14 12:36:49;;;;;;;;;;;;;;;13.45;51.06;100895.38;4928036;28;98435;-65
2024/02/14 12:39:15;;;;;;;;;;;;;;;13.42;50.93;100890.50;4924034;28;101337;-65